world map with FOC marked

FOC - Airport

This information may not be accurate or current and is not valid for navigation or flight planning. No warranty of fitness for any purpose is made or implied.

flag of China

Donate via PayPal

Additional information is available on the NEW Great Circle Mapper

Location
City:  Fuzhou, Fujian, China
Name:Changle Airport
ICAO / IATA:ZSFZ / FOC

Details
Type:Airport (Aerodrome, Airfield)
Use:Public/Civil
Latitude:25°56'N (25.933)
Longitude:119°40'E (119.665)
Elevation:46 ft (14 m)
Runways:1
Longest:11811 × 148 ft (3600 × 45 m)

Time
Timezone:UTC+8 (DST+10)
Local Time:

Weather
METAR:ZSFZ  041400Z 02005MPS 6000 BKN021 12/07 Q1023 NOSIG
TAF:ZSFZ  (expired)

Related Locations
Nearby:
Farthest:PRQ: 12373 mi / 19912 km
Presidencia Roque Sáenz Peña [Presidencia Roque Sáenz Peña Airport (Termal)], H, AR

Find:

   beyond  
but within

Other Information
Maps:
Sources:

  


 


Great Circle Mapper   Great Circle Mapper
Great Circle Mapper FAQ   Great Circle Mapper FAQ
  Karl's Home Page
KLS²   KLS² Home
   GC on Facebook
Airlines of the World   Airlines of the World
Donate via PayPal


Copyright © 2004-2020, Karl L. Swartz. All rights reserved.
All trademarks mentioned herein belong to their respective owners.

Please see credits for attribution and copyright information.

Karl Swartz <karl@kls2.com>
  Powered by FreeBSD
Valid HTML 4.01!
Labeled with ICRA
hCard Microformat
Geo Microformat